NCAR-RAP Real-Time Weather Data

Output produced by METARs form (21 May 2019  11:25 UTC)
found at http://weather.rap.ucar.edu/surface/
 
RJFU 211100Z 31008KT CAVOK 18/09 Q1008
RJFU 211000Z 31013KT CAVOK 19/07 Q1007
RJFU 210900Z 31012KT CAVOK 21/08 Q1007
RJFU 210800Z 31017KT CAVOK 22/05 Q1006
RJFU 210700Z 31017KT CAVOK 22/08 Q1006
RJFU 210600Z 31018KT CAVOK 23/08 Q1006
RJFU 210500Z 30013KT CAVOK 24/07 Q1006
RJFU 210400Z 30011KT CAVOK 24/07 Q1006
RJFU 210300Z 28009KT CAVOK 23/08 Q1007
RJFU 210200Z 31010KT CAVOK 21/08 Q1007
RJFU 210100Z 32011KT 9999 FEW030 BKN/// 20/09 Q1007
RJFU 210000Z 35007KT CAVOK 19/09 Q1008
RJFU 202300Z 36008KT CAVOK 17/09 Q1008
RJFU 202200Z 05003KT 360V090 9999 FEW040 SCT180 BKN/// 16/09 Q1007
RJFU 202110Z VRB02KT 9999 FEW040 BKN/// 14/11 Q1007 RMK 1SC040 A2976
RJFU 201200Z 30011KT 9999 FEW015 SCT170 17/12 Q1006
RJFU 201100Z 30011KT 9999 FEW015 SCT140 BKN170 18/13 Q1006
RJFU 201000Z 31008KT 9999 FEW015 BKN120 18/15 Q1005
RJFU 200900Z 30014KT 9999 FEW007 SCT015 BKN020 19/17 Q1005
RJFU 200800Z 32005KT 9999 -SHRA FEW007 BKN015 BKN020 19/18 Q1004
RJFU 200700Z 32006KT 270V340 9999 -RA FEW005 SCT020 BKN070 19/18 Q1005
RJFU 200600Z 31013KT 9999 -SHRA FEW005 SCT010 BKN020 19/18 Q1005
RJFU 200515Z 32013KT 6000 -SHRA FEW003 SCT008 BKN010 19/18 Q1005 RMK 1ST003 3ST008 6CU010 A2968
RJFU 200500Z 33012KT 280V350 4000 -SHRA BR FEW003 BKN010 BKN020 19/19 Q1005
RJFU 200432Z 35010KT 3500 SHRA BR FEW003 SCT008 BKN025 19/19 Q1004 RMK 1ST003 3ST008 7CU025 A2967
RJFU 200427Z 36010KT 3000 -SHRA BR FEW003 SCT008 BKN025 19/19 Q1005 RMK 1ST003 3ST008 7CU025 A2968
RJFU 200422Z 36010KT 4500 -SHRA BR FEW003 SCT008 BKN015 19/19 Q1005 RMK 1ST003 3ST008 5CU015 A2968
RJFU 200400Z 36010KT 6000 -SHRA FEW003 SCT008 BKN020 20/19 Q1004
RJFU 200342Z 01010KT 4000 R32/1800U SHRA BR FEW003 SCT005 BKN008 20/19 Q1005 RMK 1ST003 4ST005 7ST008 A2969
RJFU 200336Z 01009KT 2500 +SHRA BR FEW003 SCT005 BKN007 20/19 Q1005 RMK 2ST003 4ST005 7ST007 A2969
RJFU 200335Z 01009KT 3000 SHRA BR FEW003 SCT005 BKN007 20/19 Q1005 RMK 2ST003 4ST005 7ST007 A2969
RJFU 200304Z 36010KT 4500 -SHRA BR FEW003 SCT005 BKN007 20/19 Q1005 RMK 1ST003 4ST005 7ST007 A2969
RJFU 200300Z 36010KT 5000 -SHRA BR FEW003 SCT005 BKN007 20/19 Q1005
RJFU 200235Z 36009KT 6000 -SHRA FEW003 BKN007 BKN010 20/19 Q1005 RMK 1ST003 5ST007 7CU010 A2969
RJFU 200225Z 32013KT 5000 -SHRA BR FEW005 BKN010 BKN015 20/19 Q1005 RMK 1ST005 6CU010 7CU015 A2969
RJFU 200213Z 33013KT 270V350 4000 -SHRA BR FEW005 BKN010 BKN015 21/20 Q1005 RMK 1ST005 6CU010 7CU015 A2969
RJFU 200200Z 33014KT 9999 -SHRA FEW005 SCT010 BKN015 21/20 Q1005
RJFU 200100Z 33007KT 9999 FEW008 BKN015 BKN025 23/20 Q1005
RJFU 200000Z 02003KT 320V140 9999 FEW015 SCT020 BKN030 24/21 Q1005
RJFU 192300Z 15004KT 9999 FEW020 SCT025 BKN070 22/20 Q1005
RJFU 192200Z VRB02KT 9999 FEW025 BKN045 22/20 Q1005
RJFU 192110Z 14005KT 9999 FEW020 SCT030 BKN040 21/20 Q1005 RMK 1CU020 3CU030 6CU040 A2969
RJFU 191200Z 14014KT 9999 FEW030 BKN070 BKN110 22/20 Q1008
RJFU 191100Z 13013KT 9999 FEW030 BKN070 BKN110 22/20 Q1008
RJFU 191000Z 14011KT 9999 -RA FEW020 BKN070 22/20 Q1008
RJFU 190900Z 14010KT 9999 FEW007 BKN080 BKN110 22/20 Q1007
RJFU 190800Z 11013KT 9999 -RA FEW015 BKN070 23/20 Q1008
RJFU 190700Z 13010KT 9999 -RA FEW010 SCT020 BKN070 22/21 Q1008
RJFU 190600Z 16008KT 9999 -RA FEW025 SCT040 BKN060 24/20 Q1008
RJFU 190500Z 13010KT 9999 -RA FEW025 SCT040 BKN050 24/20 Q1008
RJFU 190400Z 13012KT 9999 FEW020 BKN070 BKN090 25/19 Q1008
RJFU 190300Z 11016KT 9999 -RA FEW020 BKN080 25/19 Q1008
RJFU 190200Z 12014KT 9999 FEW010 BKN070 BKN090 24/19 Q1009
RJFU 190100Z 12015KT 9999 FEW010 SCT050 BKN070 23/20 Q1009
RJFU 190000Z 10015KT 9999 FEW005 BKN050 BKN070 22/20 Q1009